Time;durP1;ratioP1;P1;durP2;ratioP2;P2;SDS_P1;SDS_P2;PMS_P1;PMS_P2;Temp;Humidity;BMP_temperature;BMP_pressure;BME280_temperature;BME280_humidity;BME280_pressure;Samples;Min_cycle;Max_cycle;Signal;HPM_P1;HPM_P2
2023/08/31 00:01:59;;;;;;;8.57;8.37;;;13.50;99.90;;;;;;5120932;28;20232;-87
2023/08/31 00:07:29;;;;;;;8.30;8.10;;;13.60;99.90;;;;;;5119542;28;20229;-88
2023/08/31 00:09:58;;;;;;;8.80;8.50;;;13.60;99.90;;;;;;5120976;28;20258;-88
2023/08/31 00:15:15;;;;;;;8.90;8.60;;;13.60;99.90;;;;;;5120788;28;20223;-87
2023/08/31 00:17:47;;;;;;;8.40;8.20;;;13.60;99.90;;;;;;5120693;28;20259;-87
2023/08/31 00:20:14;;;;;;;8.50;8.30;;;13.60;99.90;;;;;;5121058;28;20239;-87
2023/08/31 00:22:48;;;;;;;8.80;8.50;;;13.70;99.90;;;;;;5120608;28;20232;-87
2023/08/31 00:28:04;;;;;;;9.00;8.70;;;13.70;99.90;;;;;;5120633;28;20221;-87
2023/08/31 00:30:32;;;;;;;9.00;8.70;;;13.70;99.90;;;;;;5134843;28;20228;-85
2023/08/31 00:33:00;;;;;;;8.93;8.63;;;13.60;99.90;;;;;;5133868;28;20228;-87
2023/08/31 00:35:29;;;;;;;8.97;8.67;;;13.60;99.90;;;;;;5133057;28;20235;-86
2023/08/31 00:38:08;;;;;;;8.83;8.53;;;13.50;99.90;;;;;;5136404;28;20288;-86
2023/08/31 00:43:28;;;;;;;9.00;8.70;;;13.50;99.90;;;;;;5120933;28;20982;-86
2023/08/31 00:46:11;;;;;;;8.97;8.67;;;13.50;99.90;;;;;;5122129;27;21049;-86
2023/08/31 00:48:50;;;;;;;8.50;8.30;;;13.50;99.90;;;;;;5121043;28;20244;-86
2023/08/31 00:51:19;;;;;;;8.63;8.43;;;13.60;99.90;;;;;;5121127;28;20239;-87
2023/08/31 00:53:48;;;;;;;8.60;8.40;;;13.60;99.90;;;;;;5121000;28;20251;-86
2023/08/31 00:56:18;;;;;;;8.53;8.33;;;13.60;99.90;;;;;;5120836;28;20232;-86
2023/08/31 00:58:52;;;;;;;8.63;8.43;;;13.60;99.90;;;;;;5119988;28;20229;-86
2023/08/31 01:04:22;;;;;;;8.43;8.23;;;13.60;99.90;;;;;;5119056;28;20240;-86
2023/08/31 01:10:06;;;;;;;8.37;8.17;;;13.60;99.90;;;;;;5119557;28;20233;-86
2023/08/31 01:12:42;;;;;;;8.60;8.40;;;13.60;99.90;;;;;;5123846;28;20243;-86
2023/08/31 01:15:31;;;;;;;8.37;8.17;;;13.60;99.90;;;;;;5128900;28;20926;-86
2023/08/31 01:18:08;;;;;;;8.60;8.40;;;13.60;99.90;;;;;;5120977;28;20721;-86
2023/08/31 01:23:41;;;;;;;8.43;8.23;;;13.60;99.90;;;;;;5119423;28;20232;-86
2023/08/31 01:26:14;;;;;;;8.50;8.30;;;13.50;99.90;;;;;;5120282;28;20288;-86
2023/08/31 01:28:43;;;;;;;8.50;8.30;;;13.60;99.90;;;;;;5128297;27;20239;-84
2023/08/31 01:31:19;;;;;;;8.50;8.30;;;13.60;99.90;;;;;;5123951;28;20231;-87
2023/08/31 01:33:48;;;;;;;8.50;8.30;;;13.60;99.90;;;;;;5120858;28;20220;-85
2023/08/31 01:39:17;;;;;;;8.30;8.10;;;13.60;99.90;;;;;;5119511;28;20229;-85
2023/08/31 01:41:55;;;;;;;8.40;8.20;;;13.60;99.90;;;;;;5120710;28;20229;-86
2023/08/31 01:44:38;;;;;;;8.40;8.20;;;13.60;99.90;;;;;;5121192;28;20229;-86
2023/08/31 01:47:19;;;;;;;8.37;8.17;;;13.60;99.90;;;;;;5121684;28;20232;-86
2023/08/31 01:49:47;;;;;;;8.40;8.20;;;13.60;99.90;;;;;;5120584;28;20233;-86
2023/08/31 01:52:15;;;;;;;8.50;8.30;;;13.60;99.90;;;;;;5119811;28;20231;-86
2023/08/31 01:54:55;;;;;;;8.40;8.20;;;13.60;99.90;;;;;;5119998;28;20312;-86
2023/08/31 01:57:41;;;;;;;8.50;8.30;;;13.70;99.90;;;;;;5120379;28;20292;-86
2023/08/31 02:00:11;;;;;;;8.40;8.20;;;13.60;99.90;;;;;;5119882;28;20331;-86
2023/08/31 02:02:51;;;;;;;8.30;8.10;;;13.60;99.90;;;;;;5118758;28;20229;-87
2023/08/31 02:05:19;;;;;;;8.10;7.90;;;13.60;99.90;;;;;;5119359;28;20366;-87
2023/08/31 02:07:48;;;;;;;8.50;8.30;;;13.60;99.90;;;;;;5119172;28;20232;-86
2023/08/31 02:10:29;;;;;;;8.30;8.10;;;13.60;99.90;;;;;;5119226;27;20256;-86
2023/08/31 02:12:58;;;;;;;8.40;8.20;;;13.50;99.90;;;;;;5123026;28;20232;-87
2023/08/31 02:15:25;;;;;;;8.50;8.30;;;13.50;99.90;;;;;;5133168;28;20201;-84
2023/08/31 02:17:57;;;;;;;8.50;8.30;;;13.50;99.90;;;;;;5141586;27;20293;-85
2023/08/31 02:20:25;;;;;;;8.50;8.30;;;13.50;99.90;;;;;;5139602;28;20221;-86
2023/08/31 02:22:56;;;;;;;8.33;8.13;;;13.50;99.90;;;;;;5141149;28;20233;-86
2023/08/31 02:25:27;;;;;;;8.43;8.23;;;13.40;99.90;;;;;;5140912;28;20225;-86
2023/08/31 02:28:21;;;;;;;8.80;8.50;;;13.40;99.90;;;;;;5128063;28;20221;-86
2023/08/31 02:30:59;;;;;;;8.60;8.40;;;13.40;99.90;;;;;;5123321;28;20267;-86
2023/08/31 02:33:34;;;;;;;8.47;8.27;;;13.40;99.90;;;;;;5122869;28;20274;-86
2023/08/31 02:38:46;;;;;;;8.53;8.33;;;13.40;99.90;;;;;;5121034;28;20282;-87
2023/08/31 02:41:13;;;;;;;8.30;8.10;;;13.40;99.90;;;;;;5122520;28;20237;-86
2023/08/31 02:43:51;;;;;;;8.60;8.40;;;13.30;99.90;;;;;;5121895;28;20254;-86
2023/08/31 02:46:22;;;;;;;8.67;8.43;;;13.30;99.90;;;;;;5122289;28;20228;-87
2023/08/31 02:51:37;;;;;;;8.50;8.30;;;13.20;99.90;;;;;;5118631;28;20289;-86
2023/08/31 02:54:13;;;;;;;8.53;8.33;;;13.20;99.90;;;;;;5122142;28;20328;-86
2023/08/31 02:56:46;;;;;;;8.53;8.33;;;13.20;99.90;;;;;;5126677;28;20289;-86
2023/08/31 03:02:02;;;;;;;8.90;8.60;;;13.20;99.90;;;;;;5121214;28;20224;-86
2023/08/31 03:04:31;;;;;;;8.90;8.60;;;13.10;99.90;;;;;;5121560;28;20238;-86
2023/08/31 03:07:02;;;;;;;8.93;8.63;;;13.10;99.90;;;;;;5122038;28;20229;-86
2023/08/31 03:09:39;;;;;;;9.30;9.00;;;13.10;99.90;;;;;;5121951;28;20228;-86
2023/08/31 03:12:10;;;;;;;9.00;8.70;;;13.10;99.90;;;;;;5121567;28;20228;-87
2023/08/31 03:14:42;;;;;;;9.07;8.77;;;13.10;99.90;;;;;;5122239;28;20237;-86
2023/08/31 03:17:10;;;;;;;8.90;8.60;;;13.10;99.90;;;;;;5129868;27;20227;-84
2023/08/31 03:19:40;;;;;;;8.87;8.57;;;13.10;99.90;;;;;;5125878;27;20224;-86
2023/08/31 03:22:12;;;;;;;8.90;8.60;;;13.10;99.90;;;;;;5123606;27;20251;-86
2023/08/31 03:27:29;;;;;;;9.00;8.70;;;13.00;99.90;;;;;;5121788;28;20328;-86
2023/08/31 03:30:10;;;;;;;9.10;8.80;;;13.00;99.90;;;;;;5122504;28;20240;-86
2023/08/31 03:32:42;;;;;;;9.20;8.90;;;13.00;99.90;;;;;;5122241;28;20280;-85
2023/08/31 03:35:10;;;;;;;8.93;8.63;;;12.90;99.90;;;;;;5122159;28;20224;-86
2023/08/31 03:37:40;;;;;;;9.03;8.73;;;12.90;99.90;;;;;;5121875;28;20221;-86
2023/08/31 03:40:09;;;;;;;9.00;8.70;;;12.90;99.90;;;;;;5121411;28;20296;-85
2023/08/31 03:42:41;;;;;;;9.17;8.87;;;12.90;99.90;;;;;;5121640;28;20236;-86
2023/08/31 03:45:25;;;;;;;9.03;8.73;;;12.90;99.90;;;;;;5121849;28;20240;-86
2023/08/31 03:47:53;;;;;;;9.20;8.90;;;12.80;99.90;;;;;;5122289;28;20209;-87
2023/08/31 03:50:34;;;;;;;9.20;8.90;;;12.70;99.90;;;;;;5121607;28;20248;-86
2023/08/31 03:53:05;;;;;;;9.10;8.80;;;12.70;99.90;;;;;;5121278;28;20282;-86
2023/08/31 03:58:21;;;;;;;9.20;8.90;;;12.60;99.90;;;;;;5121026;28;20278;-86
2023/08/31 04:00:55;;;;;;;9.30;9.00;;;12.60;99.90;;;;;;5121165;28;20232;-86
2023/08/31 04:03:28;;;;;;;9.10;8.80;;;12.60;99.90;;;;;;5121186;28;20232;-86
2023/08/31 04:08:43;;;;;;;8.97;8.67;;;12.50;99.90;;;;;;5119922;28;21081;-86
2023/08/31 04:11:13;;;;;;;9.00;8.70;;;12.40;99.90;;;;;;5121318;28;20297;-86
2023/08/31 04:13:40;;;;;;;8.90;8.60;;;12.40;99.90;;;;;;5120422;28;20232;-86
2023/08/31 04:16:18;;;;;;;9.57;9.27;;;12.30;99.90;;;;;;5121007;28;20237;-84
2023/08/31 04:18:57;;;;;;;9.53;9.23;;;12.30;99.90;;;;;;5120862;28;20228;-86
2023/08/31 04:21:38;;;;;;;9.47;9.17;;;12.30;99.90;;;;;;5120602;28;20235;-87
2023/08/31 04:24:17;;;;;;;9.40;9.10;;;12.30;99.90;;;;;;5120966;28;20232;-86
2023/08/31 04:27:01;;;;;;;9.40;9.10;;;12.30;99.90;;;;;;5120993;28;20277;-85
2023/08/31 04:32:12;;;;;;;9.03;8.73;;;12.20;99.90;;;;;;5119467;28;20251;-86
2023/08/31 04:34:48;;;;;;;9.10;8.80;;;12.20;99.90;;;;;;5119202;27;20231;-86
2023/08/31 04:42:27;;;;;;;8.60;8.40;;;12.10;99.90;;;;;;5062239;28;20261;-78
2023/08/31 04:44:54;;;;;;;8.90;8.60;;;12.10;99.90;;;;;;5065562;28;20249;-78
2023/08/31 04:47:22;;;;;;;9.20;8.90;;;12.10;99.90;;;;;;5064744;28;20222;-79
2023/08/31 04:49:49;;;;;;;8.53;8.33;;;12.10;99.90;;;;;;5067252;28;20242;-78
2023/08/31 04:52:16;;;;;;;8.90;8.60;;;12.10;99.90;;;;;;5088154;28;20246;-78
2023/08/31 04:54:43;;;;;;;9.27;8.97;;;12.10;99.90;;;;;;5085203;28;20245;-78
2023/08/31 04:57:10;;;;;;;9.10;8.80;;;12.10;99.90;;;;;;5083106;28;20271;-77
2023/08/31 04:59:37;;;;;;;9.30;9.00;;;12.10;99.90;;;;;;5082894;28;20233;-78
2023/08/31 05:02:04;;;;;;;9.27;8.97;;;12.10;99.90;;;;;;5081822;28;20237;-77
2023/08/31 05:04:33;;;;;;;9.03;8.73;;;12.10;99.90;;;;;;5063008;28;20237;-78
2023/08/31 05:07:00;;;;;;;9.10;8.80;;;12.10;99.90;;;;;;5061691;28;20245;-78
2023/08/31 05:09:32;;;;;;;9.03;8.73;;;12.20;99.90;;;;;;5061477;28;20226;-80
2023/08/31 05:11:59;;;;;;;9.40;9.10;;;12.20;99.90;;;;;;5060901;28;20423;-77
2023/08/31 05:14:26;;;;;;;8.93;8.63;;;12.20;99.90;;;;;;5083086;28;20230;-78
2023/08/31 05:16:53;;;;;;;9.07;8.77;;;12.20;99.90;;;;;;5081607;28;20226;-78
2023/08/31 05:19:20;;;;;;;9.17;8.87;;;12.30;99.90;;;;;;5080670;28;20234;-77
2023/08/31 05:21:49;;;;;;;9.37;9.07;;;12.40;99.90;;;;;;5081126;28;20321;-77
2023/08/31 05:24:15;;;;;;;9.00;8.70;;;12.40;99.90;;;;;;5080057;28;20272;-77
2023/08/31 05:26:42;;;;;;;9.00;8.70;;;12.30;99.90;;;;;;5080107;28;20230;-76
2023/08/31 05:29:10;;;;;;;9.03;8.73;;;12.40;99.90;;;;;;5079187;28;20218;-80
2023/08/31 05:31:37;;;;;;;9.00;8.70;;;12.40;99.90;;;;;;5084916;28;20711;-77
2023/08/31 05:34:04;;;;;;;8.93;8.63;;;12.40;99.90;;;;;;5076159;28;20230;-77
2023/08/31 05:36:31;;;;;;;8.93;8.63;;;12.40;99.90;;;;;;5077434;28;20226;-77
2023/08/31 05:38:59;;;;;;;9.20;8.90;;;12.40;99.90;;;;;;5077855;28;20218;-77
2023/08/31 05:41:26;;;;;;;9.00;8.70;;;12.50;99.90;;;;;;5078012;28;20230;-78
2023/08/31 05:43:53;;;;;;;8.87;8.57;;;12.40;99.90;;;;;;5077728;28;20242;-77
2023/08/31 05:46:22;;;;;;;8.57;8.33;;;12.50;99.90;;;;;;5083396;28;20660;-77
2023/08/31 05:48:49;;;;;;;8.30;8.10;;;12.50;99.90;;;;;;5082808;28;20245;-78
2023/08/31 05:51:16;;;;;;;8.43;8.23;;;12.50;99.90;;;;;;5081376;28;20336;-78
2023/08/31 05:53:44;;;;;;;8.67;8.43;;;12.60;99.90;;;;;;5081942;28;20236;-78
2023/08/31 05:56:13;;;;;;;8.80;8.50;;;12.70;99.90;;;;;;5082786;28;20561;-77
2023/08/31 05:58:40;;;;;;;8.50;8.30;;;12.80;99.90;;;;;;5081826;28;20225;-78
2023/08/31 06:01:07;;;;;;;8.53;8.33;;;12.80;99.90;;;;;;5081504;28;20238;-78
2023/08/31 06:03:34;;;;;;;8.50;8.30;;;12.80;99.90;;;;;;5080702;28;20276;-77
2023/08/31 06:06:03;;;;;;;8.90;8.60;;;12.80;99.90;;;;;;5072383;28;20230;-78
2023/08/31 06:08:30;;;;;;;8.73;8.50;;;12.80;99.90;;;;;;5060987;28;20237;-77
2023/08/31 06:10:57;;;;;;;8.40;8.20;;;12.80;99.90;;;;;;5061627;28;20243;-77
2023/08/31 06:13:28;;;;;;;8.33;8.13;;;12.90;99.90;;;;;;5062508;28;20227;-78
2023/08/31 06:15:57;;;;;;;8.60;8.40;;;12.90;99.90;;;;;;5063045;28;20237;-77
2023/08/31 06:18:24;;;;;;;8.30;8.10;;;12.90;99.90;;;;;;5062496;28;20234;-77
2023/08/31 06:20:54;;;;;;;8.20;8.00;;;12.90;99.90;;;;;;5063086;28;20235;-77
2023/08/31 06:23:21;;;;;;;8.33;8.13;;;12.90;99.90;;;;;;5064973;28;20238;-77
2023/08/31 06:25:48;;;;;;;8.33;8.13;;;12.90;99.90;;;;;;5069912;28;20310;-78
2023/08/31 06:28:16;;;;;;;8.30;8.10;;;13.00;99.90;;;;;;5067918;28;20310;-76
2023/08/31 06:30:46;;;;;;;8.10;7.90;;;13.10;99.90;;;;;;5066934;28;20321;-78
2023/08/31 06:33:13;;;;;;;8.10;7.90;;;13.10;99.90;;;;;;5061875;28;20235;-77
2023/08/31 06:35:40;;;;;;;8.20;8.00;;;13.20;99.90;;;;;;5062338;28;20235;-77
2023/08/31 06:38:08;;;;;;;8.30;8.10;;;13.20;99.90;;;;;;5061847;28;20219;-77
2023/08/31 06:40:35;;;;;;;8.40;8.20;;;13.30;99.90;;;;;;5060083;28;20234;-77
2023/08/31 06:43:03;;;;;;;8.60;8.40;;;13.40;99.90;;;;;;5060287;28;20237;-77
2023/08/31 06:45:30;;;;;;;8.40;8.20;;;13.50;99.90;;;;;;5061707;28;20258;-78
2023/08/31 06:47:59;;;;;;;8.20;8.00;;;13.60;99.90;;;;;;5061976;28;20231;-77
2023/08/31 06:50:26;;;;;;;8.20;8.00;;;13.60;99.90;;;;;;5061254;28;20231;-78
2023/08/31 06:52:54;;;;;;;8.50;8.30;;;13.60;99.90;;;;;;5061503;28;20286;-78
2023/08/31 06:55:21;;;;;;;8.50;8.30;;;13.70;99.90;;;;;;5061503;28;20266;-77
2023/08/31 06:57:48;;;;;;;8.43;8.23;;;13.80;99.90;;;;;;5058634;28;20238;-77
2023/08/31 07:00:15;;;;;;;8.70;8.50;;;13.80;99.90;;;;;;5061976;28;20261;-79
2023/08/31 07:02:41;;;;;;;9.60;9.30;;;13.90;99.90;;;;;;5059321;28;20329;-77
2023/08/31 07:05:12;;;;;;;9.20;8.90;;;14.00;99.90;;;;;;5059944;28;20322;-78
2023/08/31 07:07:39;;;;;;;9.80;9.50;;;14.00;99.90;;;;;;5060846;28;20250;-77
2023/08/31 07:10:07;;;;;;;9.57;9.27;;;14.10;99.90;;;;;;5060140;28;20238;-78
2023/08/31 07:12:34;;;;;;;9.80;9.50;;;14.30;99.90;;;;;;5067205;28;20265;-78
2023/08/31 07:15:02;;;;;;;10.37;10.07;;;14.30;99.90;;;;;;5085959;28;20274;-76
2023/08/31 07:17:29;;;;;;;10.23;9.93;;;14.40;99.90;;;;;;5060930;28;20260;-76
2023/08/31 07:20:01;;;;;;;10.47;10.17;;;14.50;99.90;;;;;;5059754;28;20243;-76
2023/08/31 07:22:30;;;;;;;10.75;10.45;;;14.60;99.90;;;;;;5060228;28;20233;-77
2023/08/31 07:24:57;;;;;;;10.63;10.32;;;14.70;99.90;;;;;;5059800;28;20239;-77
2023/08/31 07:27:24;;;;;;;10.45;10.15;;;14.70;99.90;;;;;;5060861;28;20245;-78
2023/08/31 07:29:51;;;;;;;11.07;10.77;;;14.80;99.90;;;;;;5061168;28;20326;-76
2023/08/31 07:32:18;;;;;;;10.75;10.45;;;14.80;99.90;;;;;;5060382;28;20243;-76
2023/08/31 07:34:45;;;;;;;10.88;10.57;;;14.90;99.90;;;;;;5062366;28;20290;-77
2023/08/31 07:37:12;;;;;;;11.30;10.90;;;14.90;99.90;;;;;;5072382;28;20257;-76
2023/08/31 07:39:41;;;;;;;10.88;10.57;;;14.90;99.90;;;;;;5076634;28;20299;-77
2023/08/31 07:42:08;;;;;;;11.35;10.95;;;15.00;99.90;;;;;;5079883;28;20246;-78
2023/08/31 07:44:35;;;;;;;11.10;10.80;;;15.10;99.90;;;;;;5082609;28;20245;-78
2023/08/31 07:47:03;;;;;;;10.75;10.45;;;15.10;99.90;;;;;;5082038;28;20244;-78
2023/08/31 07:49:30;;;;;;;11.30;10.95;;;15.20;99.90;;;;;;5081796;28;20257;-78
2023/08/31 07:51:57;;;;;;;10.75;10.45;;;15.40;99.90;;;;;;5080538;28;20305;-77
2023/08/31 07:54:24;;;;;;;10.65;10.35;;;15.50;99.90;;;;;;5081037;28;20246;-78
2023/08/31 07:56:53;;;;;;;10.35;10.05;;;15.60;99.90;;;;;;5082324;28;20250;-77
2023/08/31 07:59:20;;;;;;;10.50;10.20;;;15.70;99.90;;;;;;5082381;28;20236;-78
2023/08/31 08:01:47;;;;;;;10.15;9.85;;;15.70;99.90;;;;;;5080668;28;20241;-77
2023/08/31 08:04:14;;;;;;;10.30;10.00;;;15.90;99.90;;;;;;5080440;28;20236;-78
2023/08/31 08:06:44;;;;;;;10.10;9.80;;;16.00;99.90;;;;;;5083505;28;20318;-77
2023/08/31 08:09:12;;;;;;;10.70;10.40;;;16.10;99.90;;;;;;5085778;28;20275;-79
2023/08/31 08:11:39;;;;;;;10.45;10.15;;;16.20;99.90;;;;;;5081543;28;20233;-78
2023/08/31 08:14:07;;;;;;;10.80;10.50;;;16.30;99.90;;;;;;5080776;28;20226;-78
2023/08/31 08:16:35;;;;;;;10.60;10.30;;;16.40;99.90;;;;;;5086677;28;20218;-78
2023/08/31 08:19:02;;;;;;;10.57;10.27;;;16.40;99.90;;;;;;5090150;28;20240;-79
2023/08/31 08:21:29;;;;;;;10.40;10.10;;;16.30;99.90;;;;;;5087864;28;20248;-78
2023/08/31 08:23:56;;;;;;;10.30;10.00;;;16.20;99.90;;;;;;5082680;28;20240;-78
2023/08/31 08:26:23;;;;;;;10.60;10.30;;;16.20;99.90;;;;;;5082958;28;20229;-80
2023/08/31 08:28:51;;;;;;;10.27;9.98;;;16.30;99.90;;;;;;5082910;28;20227;-78
2023/08/31 08:31:21;;;;;;;10.27;9.98;;;16.40;99.90;;;;;;5081984;28;20324;-78
2023/08/31 08:33:49;;;;;;;9.98;9.68;;;16.50;99.90;;;;;;5082152;28;20218;-79
2023/08/31 08:36:17;;;;;;;10.30;10.00;;;16.60;99.90;;;;;;5084066;28;20214;-78
2023/08/31 08:38:44;;;;;;;10.20;9.90;;;16.60;99.90;;;;;;5084128;28;20234;-79
2023/08/31 08:41:15;;;;;;;10.43;10.13;;;16.60;99.90;;;;;;5081401;28;20245;-78
2023/08/31 08:43:44;;;;;;;10.35;10.05;;;16.70;99.90;;;;;;5082177;28;20214;-79
2023/08/31 08:46:11;;;;;;;10.70;10.40;;;16.90;99.90;;;;;;5083816;28;20234;-79
2023/08/31 08:48:41;;;;;;;10.30;10.00;;;17.10;99.90;;;;;;5103449;28;20235;-79
2023/08/31 08:51:13;;;;;;;9.98;9.68;;;17.30;99.90;;;;;;5103355;28;20328;-79
2023/08/31 08:53:44;;;;;;;10.40;10.10;;;17.40;99.90;;;;;;5103056;28;20232;-78
2023/08/31 08:56:11;;;;;;;10.35;10.05;;;17.50;99.90;;;;;;5098909;28;20252;-77
2023/08/31 08:58:38;;;;;;;10.20;9.90;;;17.60;99.90;;;;;;5098833;28;20237;-77
2023/08/31 09:01:08;;;;;;;9.77;9.48;;;17.80;99.90;;;;;;5107543;28;20237;-78
2023/08/31 09:03:35;;;;;;;9.90;9.60;;;17.80;99.90;;;;;;5104945;28;20229;-78
2023/08/31 09:06:07;;;;;;;9.90;9.60;;;17.50;99.90;;;;;;5105535;28;20233;-77
2023/08/31 09:08:36;;;;;;;10.13;9.82;;;17.40;99.90;;;;;;5086954;28;20237;-77
2023/08/31 09:11:04;;;;;;;10.27;9.98;;;17.40;99.90;;;;;;5086380;28;20242;-76
2023/08/31 09:13:33;;;;;;;10.38;10.07;;;17.30;99.90;;;;;;5081737;28;20328;-77
2023/08/31 09:16:00;;;;;;;10.30;10.00;;;17.30;99.90;;;;;;5082847;28;20265;-77
2023/08/31 09:18:31;;;;;;;9.85;9.55;;;17.20;99.90;;;;;;5082096;28;20321;-77
2023/08/31 09:20:58;;;;;;;10.15;9.85;;;17.20;99.90;;;;;;5082010;28;20234;-78
2023/08/31 09:23:27;;;;;;;9.90;9.60;;;17.30;99.90;;;;;;5082738;28;20236;-77
2023/08/31 09:25:55;;;;;;;10.10;9.80;;;17.40;99.90;;;;;;5082406;28;20294;-78
2023/08/31 09:28:27;;;;;;;10.10;9.80;;;17.60;99.90;;;;;;5082771;28;20247;-77
2023/08/31 09:31:06;;;;;;;10.30;10.00;;;17.80;99.90;;;;;;5080114;28;20304;-77
2023/08/31 09:33:35;;;;;;;9.98;9.68;;;18.10;99.90;;;;;;5078681;28;20241;-77
2023/08/31 09:36:03;;;;;;;10.00;9.70;;;18.20;99.90;;;;;;5079082;28;20237;-77
2023/08/31 09:38:32;;;;;;;9.90;9.60;;;18.50;99.90;;;;;;5079345;28;20256;-77
2023/08/31 09:41:06;;;;;;;9.93;9.63;;;18.70;99.90;;;;;;5079237;28;20249;-77
2023/08/31 09:43:33;;;;;;;10.15;9.85;;;18.80;99.90;;;;;;5079067;28;20233;-77
2023/08/31 09:46:01;;;;;;;9.70;9.40;;;18.80;99.90;;;;;;5078325;28;20285;-77
2023/08/31 09:48:28;;;;;;;9.60;9.30;;;18.60;99.90;;;;;;5079227;28;20245;-77
2023/08/31 09:50:56;;;;;;;9.88;9.57;;;18.40;99.90;;;;;;5083627;28;20245;-77
2023/08/31 09:53:25;;;;;;;10.38;10.07;;;18.30;99.90;;;;;;5081305;28;20269;-77
2023/08/31 09:55:57;;;;;;;10.20;9.90;;;18.40;99.90;;;;;;5074692;28;20230;-79
2023/08/31 09:58:25;;;;;;;10.30;10.00;;;18.70;99.90;;;;;;5085597;28;20248;-77
2023/08/31 10:00:53;;;;;;;10.20;9.90;;;18.80;99.90;;;;;;5096130;28;20239;-77
2023/08/31 10:03:22;;;;;;;10.60;10.30;;;19.00;99.90;;;;;;5113146;28;20225;-80
2023/08/31 10:05:50;;;;;;;10.20;9.90;;;19.50;99.90;;;;;;5107951;28;20209;-77
2023/08/31 10:08:18;;;;;;;10.00;9.70;;;19.80;99.90;;;;;;5111757;28;20230;-78
2023/08/31 10:10:45;;;;;;;9.75;9.45;;;19.70;99.90;;;;;;5109094;28;20230;-79
2023/08/31 10:13:15;;;;;;;9.50;9.20;;;19.10;99.90;;;;;;5099364;28;20248;-78
2023/08/31 10:15:45;;;;;;;9.70;9.40;;;18.70;99.90;;;;;;5078800;28;20230;-78
2023/08/31 10:18:12;;;;;;;10.27;9.98;;;18.60;99.90;;;;;;5086601;28;20252;-78
2023/08/31 10:20:43;;;;;;;10.10;9.80;;;18.50;99.90;;;;;;5084259;28;20254;-78
2023/08/31 10:23:11;;;;;;;10.30;10.00;;;18.30;99.90;;;;;;5082331;28;20284;-79
2023/08/31 10:26:04;;;;;;;10.45;10.15;;;18.20;99.90;;;;;;5085222;28;20249;-79
2023/08/31 10:28:42;;;;;;;10.25;9.95;;;18.10;99.90;;;;;;5081644;28;20249;-81
2023/08/31 10:31:11;;;;;;;10.25;9.95;;;18.00;99.90;;;;;;5085677;28;20246;-79
2023/08/31 10:33:42;;;;;;;10.50;10.20;;;18.00;99.90;;;;;;5083678;28;20233;-76
2023/08/31 10:36:15;;;;;;;10.70;10.40;;;17.70;99.90;;;;;;5080690;28;20234;-76
2023/08/31 10:38:45;;;;;;;10.50;10.20;;;17.50;99.90;;;;;;5080570;28;20237;-77
2023/08/31 10:45:12;;;;;;;10.50;10.20;;;17.40;99.90;;;;;;5105579;28;20237;-82
2023/08/31 10:47:48;;;;;;;10.40;10.10;;;17.50;99.90;;;;;;5106427;28;20221;-82
2023/08/31 10:51:12;;;;;;;10.45;10.15;;;17.50;99.90;;;;;;5106551;28;20229;-83
2023/08/31 10:53:50;;;;;;;10.20;9.90;;;17.70;99.90;;;;;;5085578;28;20230;-83
2023/08/31 11:07:18;;;;;;;10.45;10.15;;;17.90;99.90;;;;;;5083323;28;20294;-86
2023/08/31 11:09:48;;;;;;;10.40;10.10;;;17.90;99.90;;;;;;5085409;28;20240;-88
2023/08/31 11:12:18;;;;;;;10.80;10.50;;;18.30;99.90;;;;;;5084278;28;20230;-88
2023/08/31 11:14:57;;;;;;;10.40;10.10;;;18.90;99.90;;;;;;5083290;28;20233;-88
2023/08/31 11:17:25;;;;;;;10.50;10.20;;;19.20;99.90;;;;;;5083956;28;20284;-89
2023/08/31 11:19:53;;;;;;;10.10;9.80;;;19.30;99.90;;;;;;5082936;28;20257;-88
2023/08/31 11:22:33;;;;;;;9.90;9.60;;;19.20;99.90;;;;;;5082183;28;20301;-88
2023/08/31 11:25:00;;;;;;;10.13;9.82;;;19.20;99.90;;;;;;5082974;28;20234;-87
2023/08/31 11:30:19;;;;;;;9.73;9.43;;;19.60;99.90;;;;;;5081587;28;20337;-86
2023/08/31 11:33:23;;;;;;;9.70;9.40;;;19.50;99.90;;;;;;5081324;28;20248;-86
2023/08/31 11:38:32;;;;;;;9.98;9.68;;;19.40;99.90;;;;;;5082528;28;20294;-88
2023/08/31 11:49:52;;;;;;;9.68;9.38;;;19.10;99.90;;;;;;5100918;28;20198;-85
2023/08/31 11:55:17;;;;;;;9.40;9.10;;;18.90;99.90;;;;;;5085327;28;20249;-88
2023/08/31 11:58:19;;;;;;;9.45;9.15;;;18.80;99.90;;;;;;5083361;28;20226;-86
2023/08/31 12:04:18;;;;;;;9.52;9.23;;;18.40;99.90;;;;;;5058507;28;20233;-85
2023/08/31 12:10:40;;;;;;;9.80;9.50;;;18.30;99.90;;;;;;5009952;28;20236;-83
2023/08/31 12:13:23;;;;;;;;;;;;;;;;;;;;;
2023/08/31 12:16:07;;;;;;;9.85;9.55;;;18.70;99.90;;;;;;5062379;28;20233;-83
2023/08/31 12:19:05;;;;;;;10.10;9.80;;;18.80;99.90;;;;;;5061795;28;20233;-84
2023/08/31 12:25:43;;;;;;;10.18;9.88;;;19.00;99.90;;;;;;4783999;29;20337;-84
2023/08/31 12:28:43;;;;;;;10.05;9.75;;;18.90;99.90;;;;;;5012519;28;20221;-83
2023/08/31 12:42:36;;;;;;;;;;;;;;;;;;;;;
2023/08/31 12:46:05;;;;;;;10.00;9.70;;;19.10;99.90;;;;;;4948174;28;20219;-85
2023/08/31 14:35:53;;;;;;;9.95;9.65;;;19.50;99.90;;;;;;6138890;23;20231;-85
2023/08/31 15:26:33;;;;;;;9.55;9.25;;;21.60;99.90;;;;;;6210455;22;20205;-84
2023/08/31 16:31:01;;;;;;;;;;;;;;;;;;;;;
2023/08/31 16:44:04;;;;;;;10.15;9.85;;;20.20;99.90;;;;;;6252404;22;20206;-77
2023/08/31 16:46:31;;;;;;;10.07;9.77;;;20.00;99.90;;;;;;6267767;22;20225;-76
2023/08/31 16:48:58;;;;;;;9.80;9.50;;;19.90;99.90;;;;;;6266681;22;20286;-76
2023/08/31 16:51:25;;;;;;;9.80;9.50;;;19.80;99.90;;;;;;6262265;22;20241;-76
2023/08/31 16:53:52;;;;;;;9.77;9.48;;;19.80;99.90;;;;;;6259530;22;20205;-77
2023/08/31 16:56:19;;;;;;;9.88;9.57;;;19.90;99.90;;;;;;6262294;22;20214;-76
2023/08/31 16:58:46;;;;;;;10.02;9.73;;;19.80;99.90;;;;;;6257655;22;20273;-77
2023/08/31 17:01:15;;;;;;;10.07;9.77;;;19.70;99.90;;;;;;6258663;22;20190;-77
2023/08/31 17:03:42;;;;;;;10.07;9.77;;;19.60;99.90;;;;;;6257790;22;20254;-78
2023/08/31 17:06:09;;;;;;;10.20;9.90;;;19.50;99.90;;;;;;6257585;22;20206;-78
2023/08/31 17:08:36;;;;;;;10.05;9.75;;;19.40;99.90;;;;;;6257271;22;20275;-77
2023/08/31 17:11:06;;;;;;;10.40;10.10;;;19.30;99.90;;;;;;6256248;22;20230;-78
2023/08/31 17:13:33;;;;;;;10.25;9.95;;;19.10;99.90;;;;;;6257123;22;20213;-76
2023/08/31 17:16:00;;;;;;;10.20;9.90;;;19.10;99.90;;;;;;6257309;22;20195;-76
2023/08/31 17:18:29;;;;;;;10.30;10.00;;;19.00;99.90;;;;;;6257357;22;20205;-78
2023/08/31 17:20:56;;;;;;;9.98;9.68;;;18.80;99.90;;;;;;6256960;22;20198;-77
2023/08/31 17:23:23;;;;;;;10.43;10.13;;;18.70;99.90;;;;;;6255685;22;20216;-77
2023/08/31 17:25:50;;;;;;;10.60;10.30;;;18.60;99.90;;;;;;6255792;22;20262;-78
2023/08/31 17:28:17;;;;;;;10.02;9.73;;;18.50;99.90;;;;;;6257047;22;20194;-77
2023/08/31 17:30:44;;;;;;;10.18;9.88;;;18.40;99.90;;;;;;6258096;22;20226;-77
2023/08/31 17:33:12;;;;;;;10.05;9.75;;;18.20;99.90;;;;;;6257014;22;20198;-77
2023/08/31 17:35:40;;;;;;;10.63;10.32;;;18.20;99.90;;;;;;6258628;22;20294;-78
2023/08/31 17:38:07;;;;;;;10.60;10.30;;;18.20;99.90;;;;;;6265761;22;20242;-78
2023/08/31 17:40:38;;;;;;;10.48;10.18;;;18.10;99.90;;;;;;6259857;22;20198;-77
2023/08/31 17:43:05;;;;;;;10.40;10.10;;;18.10;99.90;;;;;;6259014;22;20262;-77
2023/08/31 17:45:32;;;;;;;10.30;10.00;;;18.00;99.90;;;;;;6256908;22;20282;-78
2023/08/31 17:47:59;;;;;;;10.18;9.88;;;18.00;99.90;;;;;;6263035;22;20238;-78
2023/08/31 17:50:26;;;;;;;9.90;9.60;;;17.90;99.90;;;;;;6257639;22;20301;-79
2023/08/31 17:52:54;;;;;;;9.73;9.43;;;17.80;99.90;;;;;;6256829;22;20285;-78
2023/08/31 17:55:21;;;;;;;9.68;9.38;;;17.90;99.90;;;;;;6263169;22;20740;-78
2023/08/31 17:57:48;;;;;;;9.40;9.10;;;17.80;99.90;;;;;;6261161;22;20186;-78
2023/08/31 18:00:16;;;;;;;9.75;9.45;;;17.70;99.90;;;;;;6262466;22;20194;-78
2023/08/31 18:02:43;;;;;;;9.55;9.25;;;17.70;99.90;;;;;;6257710;22;20234;-76
2023/08/31 18:05:11;;;;;;;9.30;9.00;;;17.60;99.90;;;;;;6262042;22;20187;-77
2023/08/31 18:07:38;;;;;;;9.45;9.15;;;17.60;99.90;;;;;;6265323;22;20198;-77
2023/08/31 18:10:08;;;;;;;9.50;9.20;;;17.60;99.90;;;;;;6260143;22;20205;-76
2023/08/31 18:12:36;;;;;;;9.50;9.20;;;17.50;99.90;;;;;;6260796;22;20204;-78
2023/08/31 18:15:04;;;;;;;9.68;9.38;;;17.50;99.90;;;;;;6260526;22;20195;-79
2023/08/31 18:17:31;;;;;;;9.63;9.32;;;17.40;99.90;;;;;;6261626;22;20205;-79
2023/08/31 18:19:58;;;;;;;9.60;9.30;;;17.50;99.90;;;;;;6260780;22;20206;-77
2023/08/31 18:22:26;;;;;;;8.70;8.50;;;17.40;99.90;;;;;;6263361;22;20273;-77
2023/08/31 18:24:53;;;;;;;8.52;8.32;;;17.40;99.90;;;;;;6261799;22;20252;-78
2023/08/31 18:27:21;;;;;;;8.80;8.60;;;17.40;99.90;;;;;;6261682;22;20252;-77
2023/08/31 18:29:49;;;;;;;8.60;8.40;;;17.40;99.90;;;;;;6268649;22;20204;-77
2023/08/31 18:32:16;;;;;;;8.60;8.40;;;17.40;99.90;;;;;;6260138;22;21091;-78
2023/08/31 18:34:44;;;;;;;8.85;8.65;;;17.40;99.90;;;;;;6259374;22;20286;-78